Time;durP1;ratioP1;P1;durP2;ratioP2;P2;SDS_P1;SDS_P2;PMS_P1;PMS_P2;Temp;Humidity;BMP_temperature;BMP_pressure;BME280_temperature;BME280_humidity;BME280_pressure;Samples;Min_cycle;Max_cycle;Signal;HPM_P1;HPM_P2
2021/09/01 00:00:16;;;;;;;32.75;13.35;;;14.90;99.90;;;;;;5024914;28;20037;-62
2021/09/01 00:02:42;;;;;;;38.83;13.05;;;14.80;99.90;;;;;;5031471;28;20112;-62
2021/09/01 00:05:09;;;;;;;37.95;14.00;;;14.70;99.90;;;;;;5027372;28;20171;-62
2021/09/01 00:07:34;;;;;;;29.27;12.18;;;14.60;99.90;;;;;;5024205;28;20101;-62
2021/09/01 00:10:01;;;;;;;35.10;13.38;;;14.60;99.90;;;;;;5023260;28;20540;-62
2021/09/01 00:12:28;;;;;;;29.10;13.05;;;14.60;99.90;;;;;;5019765;28;20087;-62
2021/09/01 00:14:54;;;;;;;30.65;14.05;;;14.60;99.90;;;;;;5022885;28;20108;-62
2021/09/01 00:17:20;;;;;;;42.80;15.23;;;14.50;99.90;;;;;;5022155;28;20026;-61
2021/09/01 00:19:45;;;;;;;31.30;13.93;;;14.60;99.90;;;;;;5025999;28;20040;-62
2021/09/01 00:22:11;;;;;;;38.72;15.95;;;14.60;99.90;;;;;;5028803;28;20029;-62
2021/09/01 00:24:36;;;;;;;40.17;15.95;;;14.50;99.90;;;;;;5040851;23;20145;-54
2021/09/01 00:27:02;;;;;;;34.28;14.75;;;14.60;99.90;;;;;;5029677;28;20029;-53
2021/09/01 00:29:28;;;;;;;42.42;15.32;;;14.60;99.90;;;;;;5038057;28;20382;-55
2021/09/01 00:31:53;;;;;;;33.35;14.50;;;14.60;99.90;;;;;;5029241;28;20057;-54
2021/09/01 00:34:19;;;;;;;38.28;15.35;;;14.60;99.90;;;;;;5029785;28;20021;-54
2021/09/01 00:36:44;;;;;;;38.22;17.02;;;14.60;99.90;;;;;;5029197;28;20033;-55
2021/09/01 00:39:10;;;;;;;41.13;15.52;;;14.60;99.90;;;;;;5026287;28;20053;-53
2021/09/01 00:41:35;;;;;;;42.22;15.10;;;14.60;99.90;;;;;;5014363;28;20615;-53
2021/09/01 00:44:17;;;;;;;33.33;16.17;;;14.50;99.90;;;;;;5023329;28;20037;-58
2021/09/01 00:46:45;;;;;;;35.88;15.75;;;14.50;99.90;;;;;;5019482;28;20029;-53
2021/09/01 00:49:11;;;;;;;36.55;16.23;;;14.50;99.90;;;;;;5019625;28;20037;-52
2021/09/01 00:51:37;;;;;;;41.67;16.55;;;14.50;99.90;;;;;;5028834;28;20098;-57
2021/09/01 00:54:03;;;;;;;36.33;16.80;;;14.50;99.90;;;;;;5028718;28;20149;-50
2021/09/01 00:56:28;;;;;;;45.78;17.55;;;14.60;99.90;;;;;;5023314;28;20029;-55
2021/09/01 00:58:54;;;;;;;38.50;17.17;;;14.60;99.90;;;;;;5020990;28;20459;-54
2021/09/01 01:01:20;;;;;;;34.03;16.70;;;14.60;99.90;;;;;;5022742;28;20144;-54
2021/09/01 01:03:51;;;;;;;50.40;18.27;;;14.60;99.90;;;;;;5028012;28;20057;-55
2021/09/01 01:06:19;;;;;;;49.47;18.10;;;14.60;99.90;;;;;;5021167;28;20498;-53
2021/09/01 01:08:46;;;;;;;37.97;16.65;;;14.60;99.90;;;;;;5018729;28;20032;-53
2021/09/01 01:11:13;;;;;;;39.53;17.33;;;14.60;99.90;;;;;;5025954;28;20061;-57
2021/09/01 01:13:40;;;;;;;38.03;17.45;;;14.60;99.90;;;;;;5018878;28;20490;-55
2021/09/01 01:16:06;;;;;;;47.55;16.98;;;14.60;99.90;;;;;;5023382;28;20033;-53
2021/09/01 01:18:31;;;;;;;41.40;17.75;;;14.70;99.90;;;;;;5024391;28;20025;-56
2021/09/01 01:20:57;;;;;;;51.75;19.17;;;14.70;99.90;;;;;;5030160;28;20038;-55
2021/09/01 01:23:26;;;;;;;39.10;17.65;;;14.70;99.90;;;;;;5023611;28;20057;-58
2021/09/01 01:25:51;;;;;;;49.03;18.35;;;14.70;99.90;;;;;;5025237;28;20112;-54
2021/09/01 01:28:17;;;;;;;47.67;18.60;;;14.80;99.90;;;;;;5020149;28;20120;-57
2021/09/01 01:30:43;;;;;;;42.67;18.77;;;14.70;99.90;;;;;;5028598;28;20046;-56
2021/09/01 01:33:09;;;;;;;49.70;20.63;;;14.70;99.90;;;;;;5026155;28;20076;-56
2021/09/01 01:35:41;;;;;;;51.92;18.98;;;14.80;99.90;;;;;;5028159;28;20037;-56
2021/09/01 01:38:18;;;;;;;46.53;20.10;;;14.80;99.90;;;;;;5019043;28;20497;-54
2021/09/01 01:40:45;;;;;;;44.17;18.65;;;14.80;99.90;;;;;;5025218;28;20407;-56
2021/09/01 01:43:11;;;;;;;45.25;16.65;;;14.80;99.90;;;;;;5024707;28;20056;-57
2021/09/01 01:45:42;;;;;;;46.88;18.45;;;14.80;99.90;;;;;;5018603;28;20029;-52
2021/09/01 01:48:09;;;;;;;49.60;20.25;;;14.90;99.90;;;;;;5027536;28;20034;-55
2021/09/01 01:50:36;;;;;;;46.15;19.45;;;14.90;99.90;;;;;;5011657;28;20075;-57
2021/09/01 01:53:03;;;;;;;40.90;19.70;;;14.90;99.90;;;;;;5030332;28;20037;-56
2021/09/01 01:55:29;;;;;;;42.95;18.08;;;14.90;99.90;;;;;;5020278;28;20037;-54
2021/09/01 01:57:55;;;;;;;48.53;19.85;;;14.90;99.90;;;;;;5023652;28;20079;-56
2021/09/01 02:00:20;;;;;;;43.63;18.33;;;14.90;99.90;;;;;;5022644;28;20393;-55
2021/09/01 02:02:46;;;;;;;46.22;21.00;;;14.90;99.90;;;;;;5000484;28;20029;-58
2021/09/01 02:05:11;;;;;;;50.85;20.83;;;15.00;99.90;;;;;;5023321;28;20022;-58
2021/09/01 02:07:39;;;;;;;56.67;20.63;;;14.90;99.90;;;;;;5028563;28;20978;-52
2021/09/01 02:10:06;;;;;;;42.55;20.02;;;14.90;99.90;;;;;;5026299;28;20091;-53
2021/09/01 02:12:32;;;;;;;49.28;20.52;;;14.90;99.90;;;;;;5025736;28;20025;-56
2021/09/01 02:14:59;;;;;;;45.70;19.33;;;15.00;99.90;;;;;;5028956;28;20465;-54
2021/09/01 02:17:28;;;;;;;49.10;20.88;;;15.00;99.90;;;;;;5021931;28;20026;-54
2021/09/01 02:19:54;;;;;;;45.55;19.80;;;15.00;99.90;;;;;;5022588;28;20504;-53
2021/09/01 02:22:20;;;;;;;41.88;18.40;;;15.00;99.90;;;;;;5029447;28;20045;-57
2021/09/01 02:24:46;;;;;;;50.33;20.95;;;15.10;99.90;;;;;;5027067;28;20051;-53
2021/09/01 02:27:12;;;;;;;47.40;19.17;;;15.00;99.90;;;;;;5024384;28;20434;-54
2021/09/01 02:29:38;;;;;;;58.70;20.42;;;15.10;99.90;;;;;;5027043;28;20112;-53
2021/09/01 02:32:04;;;;;;;49.50;20.02;;;15.10;99.90;;;;;;5032977;28;20026;-57
2021/09/01 02:34:30;;;;;;;54.60;21.02;;;15.00;99.90;;;;;;5032499;28;20101;-55
2021/09/01 02:36:56;;;;;;;46.90;18.88;;;15.00;99.90;;;;;;5026027;28;20029;-55
2021/09/01 02:39:22;;;;;;;42.28;18.95;;;15.00;99.90;;;;;;5029161;28;20032;-55
2021/09/01 02:41:47;;;;;;;45.20;19.65;;;15.10;99.90;;;;;;5030307;28;20033;-54
2021/09/01 02:44:13;;;;;;;46.03;19.63;;;15.10;99.90;;;;;;5031167;28;20045;-53
2021/09/01 02:46:39;;;;;;;43.25;18.65;;;15.10;99.90;;;;;;5032128;28;20029;-54
2021/09/01 02:49:04;;;;;;;45.50;18.50;;;15.10;99.90;;;;;;5022289;28;20025;-55
2021/09/01 02:51:30;;;;;;;41.25;18.63;;;15.10;99.90;;;;;;5032730;28;20048;-57
2021/09/01 02:53:55;;;;;;;43.83;17.67;;;15.10;99.90;;;;;;5029078;28;20544;-55
2021/09/01 02:56:21;;;;;;;48.08;21.08;;;15.10;99.90;;;;;;5027996;28;20045;-57
2021/09/01 02:58:46;;;;;;;37.20;17.98;;;15.10;99.90;;;;;;5024247;28;20093;-56
2021/09/01 03:01:12;;;;;;;48.42;19.42;;;15.10;99.90;;;;;;5031731;28;20021;-52
2021/09/01 03:03:37;;;;;;;37.72;18.45;;;15.10;99.90;;;;;;5033958;28;20033;-53
2021/09/01 03:06:03;;;;;;;57.75;20.45;;;15.10;99.90;;;;;;5028909;28;20109;-56
2021/09/01 03:08:28;;;;;;;39.70;19.33;;;15.10;99.90;;;;;;5027771;28;20021;-57
2021/09/01 03:10:54;;;;;;;51.17;20.30;;;15.10;99.90;;;;;;5025893;28;20026;-57
2021/09/01 03:13:19;;;;;;;42.10;18.33;;;15.10;99.90;;;;;;5020049;28;20042;-58
2021/09/01 03:15:45;;;;;;;43.97;18.90;;;15.10;99.90;;;;;;5027947;28;20028;-55
2021/09/01 03:18:10;;;;;;;51.10;19.25;;;15.10;99.90;;;;;;5026406;28;20456;-57
2021/09/01 03:20:36;;;;;;;50.05;18.30;;;15.10;99.90;;;;;;5032917;28;20516;-59
2021/09/01 03:23:02;;;;;;;47.53;19.55;;;15.10;99.90;;;;;;5028526;28;20061;-55
2021/09/01 03:25:27;;;;;;;48.95;20.52;;;15.10;99.90;;;;;;5020848;28;21319;-56
2021/09/01 03:27:53;;;;;;;48.22;20.85;;;15.10;99.90;;;;;;5003938;28;20033;-57
2021/09/01 03:30:18;;;;;;;43.13;18.38;;;15.10;99.90;;;;;;5024566;28;20026;-58
2021/09/01 03:32:44;;;;;;;47.33;19.98;;;15.00;99.90;;;;;;5030729;28;20042;-57
2021/09/01 03:35:10;;;;;;;45.08;17.45;;;15.10;99.90;;;;;;5030387;28;20041;-57
2021/09/01 03:37:35;;;;;;;40.38;18.25;;;15.10;99.90;;;;;;5016007;28;20034;-53
2021/09/01 03:40:02;;;;;;;50.45;20.20;;;15.10;99.90;;;;;;5024974;28;20045;-59
2021/09/01 03:42:27;;;;;;;39.05;17.92;;;15.10;99.90;;;;;;5011753;28;20033;-55
2021/09/01 03:44:53;;;;;;;44.30;19.88;;;15.10;99.90;;;;;;5029558;28;20040;-56
2021/09/01 03:47:18;;;;;;;42.33;18.25;;;15.10;99.90;;;;;;5030779;28;20025;-57
2021/09/01 03:49:44;;;;;;;40.92;19.02;;;15.10;99.90;;;;;;5026630;28;20033;-56
2021/09/01 03:52:09;;;;;;;40.85;18.05;;;15.10;99.90;;;;;;5030270;28;20108;-59
2021/09/01 03:54:35;;;;;;;38.20;17.80;;;15.10;99.90;;;;;;5025722;28;20056;-57
2021/09/01 03:57:01;;;;;;;46.92;16.60;;;15.10;99.90;;;;;;5024928;28;20033;-57
2021/09/01 03:59:26;;;;;;;37.63;17.27;;;15.10;99.90;;;;;;5026351;28;20485;-56
2021/09/01 04:01:52;;;;;;;44.90;16.70;;;15.10;99.90;;;;;;5021067;28;20025;-55
2021/09/01 04:04:17;;;;;;;34.90;17.00;;;15.00;99.90;;;;;;5018784;28;20030;-55
2021/09/01 04:06:43;;;;;;;35.15;16.65;;;15.00;99.90;;;;;;5028007;28;20084;-56
2021/09/01 04:09:09;;;;;;;47.70;18.05;;;15.10;99.90;;;;;;5022351;28;20029;-58
2021/09/01 04:11:35;;;;;;;38.75;15.82;;;15.00;99.90;;;;;;5028949;28;20026;-57
2021/09/01 04:14:00;;;;;;;33.65;16.35;;;15.00;99.90;;;;;;5024209;28;20541;-56
2021/09/01 04:16:26;;;;;;;45.42;16.45;;;15.10;99.90;;;;;;5023032;28;20032;-57
2021/09/01 04:18:51;;;;;;;33.63;14.77;;;15.10;99.90;;;;;;5028511;28;20091;-54
2021/09/01 04:21:17;;;;;;;40.47;15.73;;;15.10;99.90;;;;;;5032646;28;20053;-57
2021/09/01 04:23:42;;;;;;;37.53;15.82;;;15.00;99.90;;;;;;5022945;28;22163;-57
2021/09/01 04:26:08;;;;;;;43.20;15.85;;;15.00;99.90;;;;;;5030078;28;20413;-54
2021/09/01 04:28:33;;;;;;;38.60;15.57;;;15.00;99.90;;;;;;5024132;28;20029;-56
2021/09/01 04:30:59;;;;;;;41.33;15.20;;;15.00;99.90;;;;;;5028312;28;20022;-57
2021/09/01 04:33:25;;;;;;;40.90;15.10;;;15.00;99.90;;;;;;5028880;28;20064;-57
2021/09/01 04:35:50;;;;;;;32.00;14.32;;;15.00;99.90;;;;;;5030253;28;20037;-56
2021/09/01 04:38:16;;;;;;;37.13;16.25;;;15.00;99.90;;;;;;5020368;28;20033;-56
2021/09/01 04:40:41;;;;;;;34.63;15.20;;;15.10;99.90;;;;;;5027813;28;20121;-57
2021/09/01 04:43:07;;;;;;;27.98;13.93;;;15.00;99.90;;;;;;5023171;28;20108;-57
2021/09/01 04:45:33;;;;;;;37.22;13.73;;;15.10;99.90;;;;;;5025460;28;20029;-58
2021/09/01 04:47:58;;;;;;;40.10;14.57;;;15.00;99.90;;;;;;5028199;28;20393;-56
2021/09/01 04:50:24;;;;;;;35.30;13.98;;;15.10;99.90;;;;;;5020569;28;20113;-56
2021/09/01 04:52:49;;;;;;;38.17;14.77;;;15.00;99.90;;;;;;5030978;28;20078;-58
2021/09/01 04:55:17;;;;;;;33.13;13.98;;;15.00;99.90;;;;;;5021609;28;20056;-57
2021/09/01 04:57:43;;;;;;;38.03;15.60;;;15.00;99.90;;;;;;5018084;28;20018;-55
2021/09/01 05:00:09;;;;;;;42.65;15.38;;;15.00;99.90;;;;;;5015412;28;20018;-58
2021/09/01 05:02:35;;;;;;;42.67;15.50;;;15.00;99.90;;;;;;5022096;28;20113;-57
2021/09/01 05:05:00;;;;;;;39.30;15.57;;;15.00;99.90;;;;;;5022898;28;20438;-56
2021/09/01 05:07:26;;;;;;;39.92;14.60;;;15.00;99.90;;;;;;5017921;28;20497;-58
2021/09/01 05:09:51;;;;;;;43.53;14.45;;;15.00;99.90;;;;;;5022124;28;20033;-58
2021/09/01 05:12:17;;;;;;;37.00;16.15;;;15.00;99.90;;;;;;5024144;28;20051;-57
2021/09/01 05:14:42;;;;;;;44.40;15.95;;;15.00;99.90;;;;;;5020280;28;20044;-57
2021/09/01 05:17:08;;;;;;;31.67;15.55;;;15.10;99.90;;;;;;5022573;28;20017;-60
2021/09/01 05:19:34;;;;;;;35.05;15.00;;;15.00;99.90;;;;;;5025693;28;20040;-56
2021/09/01 05:22:04;;;;;;;43.50;14.60;;;15.10;99.90;;;;;;5026120;28;20915;-60
2021/09/01 05:24:42;;;;;;;39.50;15.57;;;15.10;99.90;;;;;;5022974;28;20036;-54
2021/09/01 05:27:11;;;;;;;29.85;14.18;;;15.00;99.90;;;;;;5017112;28;20101;-63
2021/09/01 05:29:41;;;;;;;30.98;14.38;;;15.10;99.90;;;;;;5010505;28;20022;-59
2021/09/01 05:32:11;;;;;;;38.20;15.45;;;15.10;99.90;;;;;;5016804;28;20037;-61
2021/09/01 05:34:37;;;;;;;37.13;14.40;;;15.10;99.90;;;;;;5021967;28;20381;-62
2021/09/01 05:37:03;;;;;;;34.13;16.23;;;15.10;99.90;;;;;;5024820;28;20047;-59
2021/09/01 05:39:29;;;;;;;32.97;14.07;;;15.10;99.90;;;;;;5027533;28;20489;-60
2021/09/01 05:41:55;;;;;;;33.05;16.27;;;15.10;99.90;;;;;;5029808;28;20063;-59
2021/09/01 05:44:21;;;;;;;41.75;15.90;;;15.10;99.90;;;;;;5027856;28;20493;-63
2021/09/01 05:46:48;;;;;;;36.30;15.68;;;15.10;99.90;;;;;;5027816;28;20025;-58
2021/09/01 05:49:15;;;;;;;39.40;16.35;;;15.10;99.90;;;;;;5029227;28;20025;-58
2021/09/01 05:51:41;;;;;;;51.60;16.58;;;15.10;99.90;;;;;;5009997;28;20021;-58
2021/09/01 05:54:07;;;;;;;32.67;14.57;;;15.20;99.90;;;;;;5031146;28;20032;-58
2021/09/01 05:56:34;;;;;;;33.95;16.08;;;15.20;99.90;;;;;;5028810;28;20104;-57
2021/09/01 05:59:06;;;;;;;37.45;16.48;;;15.20;99.90;;;;;;5025343;28;20053;-55
2021/09/01 06:01:37;;;;;;;32.47;16.38;;;15.20;99.90;;;;;;5023363;28;20033;-58
2021/09/01 06:04:07;;;;;;;45.88;16.67;;;15.20;99.90;;;;;;5030304;28;20489;-58
2021/09/01 06:06:38;;;;;;;42.88;17.83;;;15.20;99.90;;;;;;5027416;28;20025;-58
2021/09/01 06:09:06;;;;;;;45.83;17.83;;;15.20;99.90;;;;;;5029649;28;20029;-59
2021/09/01 06:11:34;;;;;;;40.53;18.05;;;15.20;99.90;;;;;;5028553;28;20025;-58
2021/09/01 06:14:00;;;;;;;53.33;18.25;;;15.20;99.90;;;;;;5029289;28;20026;-60
2021/09/01 06:16:25;;;;;;;46.97;18.80;;;15.20;99.90;;;;;;5027287;28;20083;-60
2021/09/01 06:18:51;;;;;;;42.58;17.67;;;15.20;99.90;;;;;;5021197;28;20108;-61
2021/09/01 06:21:17;;;;;;;46.78;19.92;;;15.20;99.90;;;;;;5019429;28;20026;-59
2021/09/01 06:23:43;;;;;;;40.03;19.05;;;15.30;99.90;;;;;;5021569;28;20501;-57
2021/09/01 06:26:09;;;;;;;45.85;19.50;;;15.30;99.90;;;;;;5049173;23;20044;-53
2021/09/01 06:28:34;;;;;;;48.08;18.88;;;15.30;99.90;;;;;;5030761;28;20416;-57
2021/09/01 06:31:00;;;;;;;45.97;19.80;;;15.30;99.90;;;;;;5027440;28;20067;-55
2021/09/01 06:33:25;;;;;;;49.38;20.10;;;15.30;99.90;;;;;;5032155;28;20144;-56
2021/09/01 06:35:51;;;;;;;36.20;18.20;;;15.30;99.90;;;;;;5025817;28;20030;-53
2021/09/01 06:38:16;;;;;;;43.88;19.67;;;15.40;99.90;;;;;;5020566;28;20111;-59
2021/09/01 06:40:42;;;;;;;45.58;19.02;;;15.40;99.90;;;;;;5024114;28;20040;-57
2021/09/01 06:43:08;;;;;;;49.67;21.45;;;15.40;99.90;;;;;;5026411;28;20037;-54
2021/09/01 06:45:34;;;;;;;38.63;19.67;;;15.40;99.90;;;;;;5020233;28;20032;-54
2021/09/01 06:47:59;;;;;;;53.95;20.52;;;15.50;99.90;;;;;;5021255;28;20029;-54
2021/09/01 06:50:26;;;;;;;53.40;20.63;;;15.50;99.90;;;;;;5021422;28;20493;-58
2021/09/01 06:52:53;;;;;;;45.10;19.30;;;15.50;99.90;;;;;;5022098;28;20519;-55
2021/09/01 06:55:20;;;;;;;49.13;20.60;;;15.60;99.90;;;;;;5021211;28;20061;-56
2021/09/01 06:57:46;;;;;;;60.08;22.10;;;15.50;99.90;;;;;;5018924;28;20497;-57
2021/09/01 07:00:14;;;;;;;46.90;20.50;;;15.50;99.90;;;;;;5018108;28;20025;-59
2021/09/01 07:02:40;;;;;;;47.17;20.75;;;15.60;99.90;;;;;;5018387;28;20045;-51
2021/09/01 07:05:07;;;;;;;50.15;21.50;;;15.60;99.90;;;;;;5016315;28;20021;-55
2021/09/01 07:07:32;;;;;;;41.30;19.15;;;15.60;99.90;;;;;;5023140;28;20044;-54
2021/09/01 07:09:58;;;;;;;58.05;19.73;;;15.70;99.90;;;;;;5019363;28;20029;-54
2021/09/01 07:12:24;;;;;;;44.25;19.67;;;15.70;99.90;;;;;;5030126;28;20061;-56
2021/09/01 07:14:49;;;;;;;51.22;19.30;;;15.70;99.90;;;;;;5026681;28;20025;-58
2021/09/01 07:17:15;;;;;;;56.50;20.00;;;15.80;99.90;;;;;;5025882;28;20103;-56
2021/09/01 07:19:40;;;;;;;44.83;20.83;;;15.70;99.90;;;;;;5023456;28;20034;-55
2021/09/01 07:22:06;;;;;;;41.92;18.65;;;15.80;99.90;;;;;;5027888;28;20033;-54
2021/09/01 07:24:31;;;;;;;44.35;20.33;;;15.80;99.90;;;;;;5026924;28;20026;-53
2021/09/01 07:26:57;;;;;;;44.15;20.90;;;15.90;99.90;;;;;;5028963;28;20121;-58
2021/09/01 07:29:23;;;;;;;56.03;23.63;;;15.90;99.90;;;;;;5028523;28;20033;-54
2021/09/01 07:31:48;;;;;;;48.15;20.92;;;15.80;99.90;;;;;;5022628;28;20025;-56
2021/09/01 07:34:14;;;;;;;53.17;22.23;;;15.90;99.90;;;;;;5021747;28;20037;-55
2021/09/01 07:36:39;;;;;;;47.83;21.60;;;15.80;99.90;;;;;;5023902;28;20040;-56
2021/09/01 07:39:05;;;;;;;50.40;22.67;;;15.80;99.90;;;;;;5027403;28;20051;-55
2021/09/01 07:41:30;;;;;;;52.83;22.35;;;15.90;99.90;;;;;;5023357;28;20068;-54
2021/09/01 07:43:56;;;;;;;51.53;22.50;;;15.80;99.90;;;;;;5020019;28;20037;-56
2021/09/01 07:46:21;;;;;;;55.90;23.90;;;15.80;99.90;;;;;;5020943;28;20593;-58
2021/09/01 07:48:47;;;;;;;47.17;22.20;;;15.80;99.90;;;;;;5015067;28;20508;-57
2021/09/01 07:51:12;;;;;;;60.58;24.52;;;15.90;99.90;;;;;;5020972;28;20159;-56
2021/09/01 07:53:38;;;;;;;43.58;20.75;;;15.90;99.90;;;;;;5019935;28;20072;-59
2021/09/01 07:56:04;;;;;;;47.00;21.42;;;15.90;99.90;;;;;;5014409;28;20025;-57
2021/09/01 07:58:29;;;;;;;52.33;23.50;;;16.00;99.90;;;;;;5024395;28;20057;-55
2021/09/01 08:00:55;;;;;;;48.97;22.45;;;16.00;99.90;;;;;;5018631;28;20037;-53
2021/09/01 08:03:20;;;;;;;41.60;21.60;;;16.10;99.90;;;;;;5016387;28;20026;-53
2021/09/01 08:05:46;;;;;;;48.28;22.77;;;16.20;99.90;;;;;;5016865;28;20032;-56
2021/09/01 08:08:11;;;;;;;41.50;20.30;;;16.30;99.90;;;;;;5017178;28;20025;-53
2021/09/01 08:10:37;;;;;;;46.03;22.10;;;16.40;99.90;;;;;;5018697;28;20485;-54
2021/09/01 08:13:03;;;;;;;41.70;21.02;;;16.40;99.90;;;;;;5025691;28;20028;-57
2021/09/01 08:15:28;;;;;;;49.85;20.60;;;16.40;99.90;;;;;;5019747;28;20409;-57
2021/09/01 08:17:54;;;;;;;47.58;20.50;;;16.40;99.90;;;;;;5013107;28;20106;-57
2021/09/01 08:20:20;;;;;;;46.35;19.73;;;16.50;99.90;;;;;;5015048;28;20125;-55
2021/09/01 08:22:45;;;;;;;40.13;17.38;;;16.50;99.90;;;;;;5016168;28;20040;-56
2021/09/01 08:25:11;;;;;;;36.13;19.45;;;16.60;99.90;;;;;;5021426;28;20546;-56
2021/09/01 08:27:38;;;;;;;39.40;17.83;;;16.50;99.90;;;;;;5014036;28;20136;-58
2021/09/01 08:30:05;;;;;;;40.22;18.10;;;16.50;99.90;;;;;;5015960;28;20077;-57
2021/09/01 08:32:30;;;;;;;44.65;17.45;;;16.50;99.90;;;;;;5014553;28;20041;-56
2021/09/01 08:34:56;;;;;;;43.22;17.90;;;16.50;99.90;;;;;;5022975;28;20022;-54
2021/09/01 08:37:21;;;;;;;42.65;18.23;;;16.50;99.90;;;;;;5022693;28;20386;-57
2021/09/01 08:39:47;;;;;;;39.45;18.10;;;16.50;99.90;;;;;;5017831;28;20034;-57
2021/09/01 08:42:13;;;;;;;42.92;19.05;;;16.60;99.90;;;;;;5021820;28;20104;-56
2021/09/01 08:44:39;;;;;;;36.95;17.67;;;16.60;99.90;;;;;;5020834;28;20018;-58
2021/09/01 08:47:05;;;;;;;36.60;18.00;;;16.60;99.90;;;;;;5014930;28;20034;-57
2021/09/01 08:49:31;;;;;;;38.38;19.65;;;16.60;99.90;;;;;;5014311;28;20026;-58
2021/09/01 08:51:59;;;;;;;36.13;19.20;;;16.70;99.90;;;;;;5017950;28;20022;-55
2021/09/01 08:54:25;;;;;;;41.03;18.90;;;16.80;99.90;;;;;;5015534;28;20042;-56
2021/09/01 08:56:50;;;;;;;45.53;20.17;;;16.80;99.90;;;;;;5015482;28;20516;-58
2021/09/01 08:59:16;;;;;;;33.78;17.10;;;16.70;99.90;;;;;;5021474;28;20501;-57
2021/09/01 09:01:52;;;;;;;49.40;19.38;;;16.70;99.90;;;;;;5020934;28;20033;-58
2021/09/01 09:04:19;;;;;;;37.40;17.23;;;16.80;99.90;;;;;;5017819;28;20397;-59
2021/09/01 09:07:04;;;;;;;32.85;16.00;;;16.90;99.90;;;;;;5014284;28;20531;-56
2021/09/01 09:09:35;;;;;;;40.53;16.55;;;16.90;99.90;;;;;;5017952;28;20037;-57
2021/09/01 09:12:02;;;;;;;33.55;15.57;;;17.00;99.90;;;;;;5013324;28;20041;-58
2021/09/01 09:14:36;;;;;;;40.28;17.08;;;17.00;99.90;;;;;;5015192;28;20374;-59
2021/09/01 09:17:05;;;;;;;30.90;15.73;;;17.10;99.90;;;;;;5013310;28;20489;-57
2021/09/01 09:19:53;;;;;;;32.97;14.93;;;17.00;99.90;;;;;;5016318;28;20050;-57
2021/09/01 09:22:23;;;;;;;29.30;13.48;;;17.00;99.90;;;;;;5015719;28;20029;-58
2021/09/01 09:25:05;;;;;;;38.33;15.20;;;17.00;99.90;;;;;;5014080;28;20041;-58
2021/09/01 09:27:39;;;;;;;32.72;15.73;;;17.10;99.90;;;;;;5015788;28;20502;-57
2021/09/01 09:30:20;;;;;;;39.03;16.10;;;17.00;99.90;;;;;;5012362;28;20037;-58
2021/09/01 09:32:58;;;;;;;35.78;15.48;;;16.90;99.90;;;;;;5010883;28;20034;-57
2021/09/01 09:35:59;;;;;;;47.83;17.33;;;16.80;99.90;;;;;;5014069;28;20448;-57
2021/09/01 09:38:33;;;;;;;28.17;15.75;;;16.90;99.90;;;;;;5026298;28;20033;-57
2021/09/01 09:41:01;;;;;;;36.75;16.08;;;16.90;99.90;;;;;;5022377;28;20071;-56
2021/09/01 09:43:28;;;;;;;45.92;18.10;;;17.00;99.90;;;;;;5021654;28;20030;-59
2021/09/01 09:46:11;;;;;;;41.90;17.17;;;17.00;99.90;;;;;;5028526;28;20538;-56
2021/09/01 09:48:39;;;;;;;36.80;16.35;;;17.00;99.90;;;;;;5026655;28;20501;-56
2021/09/01 09:51:07;;;;;;;29.85;14.98;;;17.00;99.90;;;;;;5014008;28;20160;-60
2021/09/01 09:53:35;;;;;;;31.15;14.48;;;17.00;99.90;;;;;;5026787;28;20032;-56
2021/09/01 09:56:18;;;;;;;31.27;14.55;;;17.00;99.90;;;;;;5030469;28;20034;-54
2021/09/01 09:58:55;;;;;;;29.60;14.80;;;17.10;99.90;;;;;;5024791;28;20032;-56
2021/09/01 10:01:23;;;;;;;25.50;13.68;;;17.10;99.90;;;;;;5019794;28;20026;-57
2021/09/01 10:03:50;;;;;;;31.15;15.88;;;17.10;99.90;;;;;;5015023;28;20033;-56
2021/09/01 10:06:17;;;;;;;32.75;14.73;;;17.10;99.90;;;;;;5010981;28;20113;-57
2021/09/01 10:08:44;;;;;;;30.15;15.30;;;17.10;99.90;;;;;;5017902;28;20041;-54
2021/09/01 10:11:12;;;;;;;30.95;15.25;;;17.20;99.90;;;;;;5017842;28;20087;-55
2021/09/01 10:13:40;;;;;;;30.48;15.73;;;17.20;99.90;;;;;;5019027;28;20689;-56
2021/09/01 10:16:20;;;;;;;32.35;15.82;;;17.20;99.90;;;;;;5014388;28;20169;-57
2021/09/01 10:19:03;;;;;;;33.35;18.27;;;17.30;99.90;;;;;;5016926;28;20033;-58
2021/09/01 10:21:34;;;;;;;31.50;15.35;;;17.30;99.90;;;;;;5011349;28;20060;-55
2021/09/01 10:24:21;;;;;;;30.65;16.02;;;17.20;99.90;;;;;;5015146;28;20080;-58
2021/09/01 10:27:22;;;;;;;37.50;17.02;;;17.30;99.90;;;;;;5018148;28;20053;-59
2021/09/01 10:29:54;;;;;;;35.28;16.05;;;17.20;99.90;;;;;;5021534;28;20384;-59
2021/09/01 10:32:43;;;;;;;30.73;14.88;;;17.20;99.90;;;;;;5019249;28;20381;-58
2021/09/01 10:35:15;;;;;;;28.85;15.02;;;17.20;99.90;;;;;;5018012;28;20408;-58
2021/09/01 10:37:46;;;;;;;31.58;15.23;;;17.20;99.90;;;;;;5019026;28;20147;-56
2021/09/01 10:40:34;;;;;;;34.17;16.27;;;17.10;99.90;;;;;;5018613;28;20032;-57
2021/09/01 10:43:16;;;;;;;31.70;16.63;;;17.20;99.90;;;;;;5017612;28;20724;-59
2021/09/01 10:45:48;;;;;;;35.58;17.02;;;17.20;99.90;;;;;;5025028;28;20737;-57
2021/09/01 10:48:14;;;;;;;31.42;16.63;;;17.20;99.90;;;;;;5026493;28;20025;-60
2021/09/01 10:50:43;;;;;;;41.70;19.55;;;17.30;99.90;;;;;;5018046;28;20537;-55
2021/09/01 10:53:28;;;;;;;34.20;19.10;;;17.40;99.90;;;;;;5021261;28;20034;-53
2021/09/01 10:56:05;;;;;;;39.33;19.15;;;17.50;99.90;;;;;;5026773;28;20036;-59
2021/09/01 10:58:32;;;;;;;38.13;18.05;;;17.50;99.90;;;;;;5018406;28;20056;-58
2021/09/01 11:01:04;;;;;;;36.22;17.38;;;17.60;99.90;;;;;;5022944;28;20036;-58
2021/09/01 11:03:33;;;;;;;27.23;16.27;;;17.60;99.90;;;;;;5016660;28;20687;-58
2021/09/01 11:06:24;;;;;;;30.65;17.08;;;17.60;99.90;;;;;;5028459;28;20064;-59
2021/09/01 11:08:54;;;;;;;31.83;16.35;;;17.70;99.90;;;;;;5018096;28;20080;-60
2021/09/01 11:11:20;;;;;;;34.70;17.60;;;17.70;99.90;;;;;;5023791;28;20022;-57
2021/09/01 11:13:45;;;;;;;40.97;18.00;;;17.60;99.90;;;;;;5020241;28;20034;-60
2021/09/01 11:16:22;;;;;;;32.25;17.70;;;17.70;99.90;;;;;;5024442;28;20025;-56
2021/09/01 11:19:05;;;;;;;34.72;16.55;;;17.70;99.90;;;;;;5017655;28;20061;-57
2021/09/01 11:21:33;;;;;;;38.40;17.63;;;17.70;99.90;;;;;;5015931;28;20403;-60
2021/09/01 11:23:59;;;;;;;36.88;18.17;;;17.70;99.90;;;;;;5014198;28;20295;-58
2021/09/01 11:26:30;;;;;;;35.05;18.25;;;17.60;99.90;;;;;;5020802;28;20025;-58
2021/09/01 11:28:56;;;;;;;35.50;19.10;;;17.50;99.90;;;;;;5022952;28;20044;-61
2021/09/01 11:31:22;;;;;;;39.50;17.00;;;17.50;99.90;;;;;;5021650;28;20030;-60
2021/09/01 11:33:47;;;;;;;32.50;17.60;;;17.50;99.90;;;;;;5018840;28;20051;-58
2021/09/01 11:36:13;;;;;;;40.00;19.13;;;17.50;99.90;;;;;;5024272;28;20026;-58
2021/09/01 11:38:46;;;;;;;34.80;19.05;;;17.60;99.90;;;;;;5022104;28;20026;-54
2021/09/01 11:41:12;;;;;;;36.55;17.35;;;17.60;99.90;;;;;;5019326;28;20817;-58
2021/09/01 11:43:38;;;;;;;38.90;18.02;;;17.50;99.90;;;;;;5016542;28;20037;-54
2021/09/01 11:46:04;;;;;;;32.67;18.52;;;17.50;99.90;;;;;;5013133;28;20489;-55
2021/09/01 11:48:39;;;;;;;36.33;18.70;;;17.40;99.90;;;;;;5014560;28;20052;-59
2021/09/01 11:51:05;;;;;;;39.00;18.95;;;17.40;99.90;;;;;;5019611;28;20532;-59
2021/09/01 11:53:39;;;;;;;34.83;17.92;;;17.30;99.90;;;;;;5014309;28;20034;-59
2021/09/01 11:56:06;;;;;;;36.45;18.65;;;17.40;99.90;;;;;;5018514;28;20596;-59
2021/09/01 11:58:32;;;;;;;31.92;19.05;;;17.40;99.90;;;;;;5021184;28;20041;-59
2021/09/01 12:00:59;;;;;;;39.35;17.20;;;17.40;99.90;;;;;;5017918;28;20034;-54
2021/09/01 12:03:26;;;;;;;33.40;17.45;;;17.40;99.90;;;;;;5027215;28;20548;-59
2021/09/01 12:06:05;;;;;;;41.47;21.13;;;17.50;99.90;;;;;;5031914;28;20481;-58
2021/09/01 12:08:44;;;;;;;36.85;20.45;;;17.40;99.90;;;;;;5030390;28;20044;-58
2021/09/01 12:11:10;;;;;;;43.03;21.15;;;17.30;99.90;;;;;;5022549;28;20022;-60
2021/09/01 12:13:47;;;;;;;47.67;22.13;;;17.30;99.90;;;;;;5016505;28;20030;-57
2021/09/01 12:16:14;;;;;;;45.03;21.30;;;17.20;99.90;;;;;;5013729;28;20084;-58
2021/09/01 12:18:50;;;;;;;48.05;22.15;;;17.30;99.90;;;;;;5012434;28;20018;-57
2021/09/01 12:21:17;;;;;;;43.95;22.45;;;17.30;99.90;;;;;;5017182;28;20601;-60
2021/09/01 12:23:43;;;;;;;47.30;24.25;;;17.40;99.90;;;;;;5016481;28;20767;-60
2021/09/01 12:26:09;;;;;;;49.60;25.63;;;17.30;99.90;;;;;;5031053;23;20050;-61
2021/09/01 12:28:45;;;;;;;49.70;25.73;;;17.40;99.90;;;;;;4989411;28;20023;-58
2021/09/01 12:31:18;;;;;;;48.33;25.30;;;17.30;99.90;;;;;;4990195;28;20109;-59